Ballinamallard, United Kingdom
Current Conditions -  °F | °C
As of 12:30 PM on Thursday 23 Oct 2014 (Local Time) from EISG Reporting Station
Overcast Overcast  
Wind Chill: 14°   Ceiling: 2500
Heat Index: 14°   Visibility: 6mi
Dew Point: 12°   Wind: 10mph
Humidity: 88%   Direction: 200°SSW
Pressure: 29.77"   Gusts: NA
Location:  54.4°N, 7.58°W
Report Text: EISG 231130Z 20009KT 170V230 9999 FEW018 BKN025 OVC036 14/12 Q1008
Loading
Personal Weather Stations






























Interactive Weather Map
Tropical Storm Tracking
New forecast layout! Learn more

10-Day Weather Forecast

Advertisements
Track Severe Weather on mobile